createdAt,value
2023-11-30T00:00:25.473Z,9.73
2023-11-30T00:02:52.539Z,8.88
2023-11-30T00:05:21.953Z,9.05
2023-11-30T00:07:50.098Z,10.50
2023-11-30T00:10:16.860Z,8.73
2023-11-30T00:12:43.431Z,9.27
2023-11-30T00:15:10.808Z,9.77
2023-11-30T00:17:37.726Z,10.05
2023-11-30T00:20:05.038Z,10.10
2023-11-30T00:22:31.750Z,11.15
2023-11-30T00:24:58.453Z,9.57
2023-11-30T00:27:25.312Z,9.75
2023-11-30T00:29:52.292Z,10.73
2023-11-30T00:32:18.921Z,10.10
2023-11-30T00:34:45.572Z,10.43
2023-11-30T00:37:12.188Z,11.18
2023-11-30T00:39:39.095Z,10.32
2023-11-30T00:42:05.829Z,10.48
2023-11-30T00:44:32.575Z,9.52
2023-11-30T00:46:59.228Z,8.95
2023-11-30T00:49:25.878Z,9.43
2023-11-30T00:51:52.619Z,7.85
2023-11-30T00:54:19.349Z,7.70
2023-11-30T00:56:46.136Z,8.85
2023-11-30T00:59:12.980Z,8.95
2023-11-30T01:01:39.983Z,9.52
2023-11-30T01:04:06.825Z,9.38
2023-11-30T01:06:33.520Z,8.60
2023-11-30T01:09:00.231Z,8.98
2023-11-30T01:11:26.936Z,8.77
2023-11-30T01:13:53.753Z,8.38
2023-11-30T01:16:20.598Z,8.40
2023-11-30T01:18:47.223Z,8.68
2023-11-30T01:21:14.162Z,8.57
2023-11-30T01:23:41.214Z,9.27
2023-11-30T01:26:07.823Z,9.32
2023-11-30T01:28:34.549Z,8.90
2023-11-30T01:31:01.856Z,9.13
2023-11-30T01:33:28.999Z,8.40
2023-11-30T01:35:55.782Z,8.50
2023-11-30T01:38:22.436Z,8.35
2023-11-30T01:40:49.176Z,9.32
2023-11-30T01:43:22.039Z,7.93
2023-11-30T01:45:51.584Z,9.40
2023-11-30T01:48:22.300Z,8.82
2023-11-30T01:50:49.159Z,8.70
2023-11-30T01:53:16.680Z,7.75
2023-11-30T01:55:43.473Z,8.20
2023-11-30T01:58:10.915Z,7.70
2023-11-30T02:00:37.780Z,7.85
2023-11-30T02:03:04.904Z,8.05
2023-11-30T02:05:31.838Z,9.30
2023-11-30T02:07:58.458Z,9.50
2023-11-30T02:10:25.324Z,8.70
2023-11-30T02:12:51.972Z,8.13
2023-11-30T02:15:18.979Z,9.10
2023-11-30T02:17:46.448Z,8.27
2023-11-30T02:20:13.184Z,8.50
2023-11-30T02:22:39.841Z,8.57
2023-11-30T02:25:06.747Z,8.60
2023-11-30T02:27:33.484Z,8.18
2023-11-30T02:30:00.299Z,8.07
2023-11-30T02:32:27.049Z,8.20
2023-11-30T02:34:53.887Z,8.35
2023-11-30T02:37:20.486Z,9.02
2023-11-30T02:39:47.088Z,7.93
2023-11-30T02:42:14.036Z,8.63
2023-11-30T02:44:40.682Z,9.15
2023-11-30T02:47:07.313Z,8.23
2023-11-30T02:49:34.540Z,8.32
2023-11-30T02:52:01.419Z,8.38
2023-11-30T02:54:28.073Z,8.30
2023-11-30T02:56:54.789Z,8.18
2023-11-30T02:59:21.540Z,8.35
2023-11-30T03:01:50.421Z,7.63
2023-11-30T03:04:17.272Z,8.88
2023-11-30T03:06:43.959Z,7.88
2023-11-30T03:09:11.910Z,8.45
2023-11-30T03:11:40.435Z,8.32
2023-11-30T03:14:07.183Z,8.20
2023-11-30T03:16:33.794Z,8.52
2023-11-30T03:19:13.670Z,7.78
2023-11-30T03:21:43.294Z,8.23
2023-11-30T03:24:09.968Z,7.95
2023-11-30T03:26:36.643Z,8.15
2023-11-30T03:29:03.764Z,8.23
2023-11-30T03:31:30.529Z,9.02
2023-11-30T03:33:57.216Z,7.95
2023-11-30T03:36:24.366Z,8.98
2023-11-30T03:38:55.438Z,7.95
2023-11-30T03:41:25.064Z,9.30
2023-11-30T03:43:53.030Z,9.02
2023-11-30T03:46:22.931Z,8.75
2023-11-30T03:48:49.673Z,9.32
2023-11-30T03:51:16.423Z,9.23
2023-11-30T03:53:43.107Z,8.63
2023-11-30T03:56:10.042Z,8.02
2023-11-30T03:58:36.826Z,8.02
2023-11-30T04:01:03.494Z,7.43
2023-11-30T04:03:30.340Z,8.68
2023-11-30T04:05:57.039Z,9.18
2023-11-30T04:08:23.686Z,8.73
2023-11-30T04:10:50.402Z,9.00
2023-11-30T04:13:17.269Z,8.90
2023-11-30T04:15:44.226Z,8.70
2023-11-30T04:18:11.013Z,8.68
2023-11-30T04:20:37.943Z,8.30
2023-11-30T04:23:04.797Z,8.73
2023-11-30T04:25:31.442Z,8.35
2023-11-30T04:27:58.223Z,8.38
2023-11-30T04:30:24.953Z,8.05
2023-11-30T04:32:51.647Z,8.27
2023-11-30T04:35:18.474Z,8.45
2023-11-30T04:37:45.119Z,9.23
2023-11-30T04:40:13.793Z,7.57
2023-11-30T04:42:40.460Z,8.85
2023-11-30T04:45:07.543Z,8.73
2023-11-30T04:47:34.294Z,9.43
2023-11-30T04:50:01.222Z,8.38
2023-11-30T04:52:27.833Z,8.77
2023-11-30T04:54:54.458Z,9.40
2023-11-30T04:57:21.171Z,9.50
2023-11-30T04:59:47.777Z,9.15
2023-11-30T05:02:14.821Z,11.27
2023-11-30T05:04:41.625Z,11.32
2023-11-30T05:07:08.455Z,10.90
2023-11-30T05:09:35.112Z,11.98
2023-11-30T05:12:01.879Z,11.07
2023-11-30T05:14:28.684Z,10.20
2023-11-30T05:16:55.383Z,10.73
2023-11-30T05:19:22.008Z,9.40
2023-11-30T05:21:48.634Z,9.70
2023-11-30T05:24:15.371Z,10.88
2023-11-30T05:26:42.043Z,11.50
2023-11-30T05:29:08.719Z,12.10
2023-11-30T05:31:35.532Z,11.10
2023-11-30T05:34:03.631Z,10.05
2023-11-30T05:36:30.649Z,10.10
2023-11-30T05:38:57.488Z,9.80
2023-11-30T05:41:24.253Z,10.95
2023-11-30T05:43:52.045Z,9.18
2023-11-30T05:46:20.268Z,8.25
2023-11-30T05:48:47.240Z,7.63
2023-11-30T05:51:14.924Z,8.30
2023-11-30T05:53:41.728Z,7.65
2023-11-30T05:56:08.864Z,8.05
2023-11-30T05:58:35.444Z,7.75
2023-11-30T06:01:02.126Z,7.88
2023-11-30T06:03:28.873Z,7.90
2023-11-30T06:05:56.210Z,7.53
2023-11-30T06:08:25.922Z,7.88
2023-11-30T06:10:52.736Z,7.78
2023-11-30T06:13:19.642Z,8.73
2023-11-30T06:15:46.978Z,9.18
2023-11-30T06:18:13.772Z,10.73
2023-11-30T06:20:40.419Z,12.98
2023-11-30T06:23:07.089Z,11.50
2023-11-30T06:25:33.843Z,10.10
2023-11-30T06:28:00.682Z,10.60
2023-11-30T06:30:27.325Z,10.88
2023-11-30T06:32:54.098Z,9.80
2023-11-30T06:35:21.996Z,9.95
2023-11-30T06:37:48.744Z,8.98
2023-11-30T06:40:15.398Z,9.60
2023-11-30T06:42:42.038Z,15.02
2023-11-30T06:45:09.220Z,13.65
2023-11-30T06:47:36.076Z,16.15
2023-11-30T06:50:02.908Z,15.40
2023-11-30T06:52:29.604Z,10.45
2023-11-30T06:54:56.251Z,10.32
2023-11-30T06:57:23.041Z,8.90
2023-11-30T06:59:49.658Z,9.18
2023-11-30T07:02:16.258Z,9.25
2023-11-30T07:04:43.016Z,9.45
2023-11-30T07:07:12.931Z,8.18
2023-11-30T07:09:43.644Z,8.68
2023-11-30T07:12:14.278Z,8.02
2023-11-30T07:14:50.755Z,8.50
2023-11-30T07:17:18.570Z,7.97
2023-11-30T07:19:45.398Z,8.45
2023-11-30T07:22:12.773Z,8.75
2023-11-30T07:24:39.389Z,8.57
2023-11-30T07:27:06.419Z,8.43
2023-11-30T07:29:34.715Z,8.52
2023-11-30T07:32:01.458Z,7.90
2023-11-30T07:34:28.204Z,8.13
2023-11-30T07:36:55.139Z,12.02
2023-11-30T07:39:22.290Z,9.18
2023-11-30T07:41:50.354Z,8.60
2023-11-30T07:44:17.903Z,8.20
2023-11-30T07:46:45.552Z,8.32
2023-11-30T07:49:12.531Z,8.35
2023-11-30T07:51:39.215Z,8.02
2023-11-30T07:54:07.242Z,7.63
2023-11-30T07:56:36.771Z,7.15
2023-11-30T07:59:03.534Z,9.20
2023-11-30T08:01:30.181Z,11.38
2023-11-30T08:03:59.467Z,13.95
2023-11-30T08:06:26.218Z,9.00
2023-11-30T08:08:53.001Z,7.32
2023-11-30T08:11:21.270Z,6.53
2023-11-30T08:13:47.908Z,6.90
2023-11-30T08:16:15.608Z,6.13
2023-11-30T08:18:42.343Z,6.50
2023-11-30T08:21:09.031Z,6.57
2023-11-30T08:23:37.865Z,6.38
2023-11-30T08:26:05.318Z,6.20
2023-11-30T08:28:31.986Z,6.60
2023-11-30T08:31:01.935Z,6.18
2023-11-30T08:33:29.779Z,5.72
2023-11-30T08:35:56.511Z,6.30
2023-11-30T08:38:24.200Z,6.15
2023-11-30T08:40:50.783Z,6.10
2023-11-30T08:43:17.464Z,6.93
2023-11-30T08:45:45.230Z,7.68
2023-11-30T08:48:12.108Z,6.20
2023-11-30T08:50:38.826Z,6.60
2023-11-30T08:53:05.439Z,8.60
2023-11-30T08:55:33.393Z,7.20
2023-11-30T08:58:00.071Z,6.93
2023-11-30T09:00:27.067Z,6.80
2023-11-30T09:02:53.725Z,6.78
2023-11-30T09:05:21.186Z,6.20
2023-11-30T09:07:47.988Z,5.70
2023-11-30T09:10:14.640Z,6.32
2023-11-30T09:12:41.370Z,6.53
2023-11-30T09:15:10.381Z,6.45
2023-11-30T09:17:37.345Z,5.80
2023-11-30T09:20:06.397Z,6.03
2023-11-30T09:22:36.874Z,6.70
2023-11-30T09:25:04.664Z,6.25
2023-11-30T09:27:31.285Z,6.90
2023-11-30T09:29:58.047Z,6.43
2023-11-30T09:32:24.856Z,6.32
2023-11-30T09:34:51.595Z,6.28
2023-11-30T09:37:18.837Z,7.07
2023-11-30T09:39:45.824Z,6.95
2023-11-30T09:42:17.538Z,6.18
2023-11-30T09:44:44.812Z,6.57
2023-11-30T09:47:12.316Z,7.47
2023-11-30T09:49:39.388Z,9.07
2023-11-30T09:52:06.752Z,6.72
2023-11-30T09:54:33.795Z,6.75
2023-11-30T09:57:00.396Z,6.70
2023-11-30T09:59:30.808Z,6.53
2023-11-30T10:02:03.738Z,6.90
2023-11-30T10:04:32.329Z,7.30
2023-11-30T10:06:59.261Z,6.95
2023-11-30T10:09:26.003Z,7.60
2023-11-30T10:11:53.726Z,8.50
2023-11-30T10:14:20.517Z,7.47
2023-11-30T10:16:47.283Z,7.32
2023-11-30T10:19:14.646Z,7.03
2023-11-30T10:21:43.168Z,6.53
2023-11-30T10:24:10.501Z,6.53
2023-11-30T10:26:39.367Z,6.68
2023-11-30T10:29:08.113Z,6.18
2023-11-30T10:31:38.272Z,6.47
2023-11-30T10:34:13.816Z,6.35
2023-11-30T10:36:44.039Z,7.57
2023-11-30T10:39:19.902Z,7.13
2023-11-30T10:41:54.449Z,8.27
2023-11-30T10:44:28.519Z,7.35
2023-11-30T10:46:57.402Z,7.75
2023-11-30T10:49:25.764Z,7.60
2023-11-30T10:51:56.618Z,7.57
2023-11-30T10:54:38.687Z,8.07
2023-11-30T10:57:06.263Z,9.25
2023-11-30T10:59:34.167Z,7.45
2023-11-30T11:02:01.286Z,7.30
2023-11-30T11:04:29.051Z,7.55
2023-11-30T11:07:08.754Z,7.35
2023-11-30T11:09:51.507Z,7.00
2023-11-30T11:12:26.827Z,7.50
2023-11-30T11:15:14.865Z,7.65
2023-11-30T11:17:53.745Z,7.40
2023-11-30T11:20:27.152Z,7.50
2023-11-30T11:23:10.382Z,7.63
2023-11-30T11:25:40.442Z,8.27
2023-11-30T11:28:07.606Z,8.48
2023-11-30T11:30:41.192Z,9.70
2023-11-30T11:33:07.885Z,9.40
2023-11-30T11:35:34.611Z,9.88
2023-11-30T11:38:01.244Z,7.88
2023-11-30T11:40:28.307Z,9.05
2023-11-30T11:42:55.790Z,9.70
2023-11-30T11:45:22.557Z,8.48
2023-11-30T11:47:49.362Z,7.65
2023-11-30T11:50:16.596Z,7.78
2023-11-30T11:52:43.293Z,8.70
2023-11-30T11:55:12.140Z,8.57
2023-11-30T11:57:40.372Z,8.10
2023-11-30T12:00:19.394Z,8.23
2023-11-30T12:02:46.485Z,8.43
2023-11-30T12:05:15.305Z,8.50
2023-11-30T12:07:49.795Z,8.32
2023-11-30T12:10:43.379Z,8.38
2023-11-30T12:13:13.601Z,8.10
2023-11-30T12:15:41.076Z,10.15
2023-11-30T12:18:08.640Z,8.10
2023-11-30T12:20:36.467Z,9.48
2023-11-30T12:23:03.427Z,8.02
2023-11-30T12:25:30.121Z,9.20
2023-11-30T12:27:57.187Z,9.00
2023-11-30T12:30:25.129Z,8.73
2023-11-30T12:32:52.031Z,8.63
2023-11-30T12:35:18.782Z,8.35
2023-11-30T12:37:45.414Z,8.45
2023-11-30T12:40:14.823Z,8.38
2023-11-30T12:42:45.606Z,8.85
2023-11-30T12:45:13.336Z,9.80
2023-11-30T12:47:42.101Z,9.05
2023-11-30T12:50:10.561Z,9.90
2023-11-30T12:52:37.604Z,9.75
2023-11-30T12:55:05.411Z,11.65
2023-11-30T12:57:35.782Z,12.95
2023-11-30T13:00:04.537Z,10.80
2023-11-30T13:02:32.118Z,8.77
2023-11-30T13:04:58.816Z,9.27
2023-11-30T13:07:25.606Z,9.00
2023-11-30T13:09:52.350Z,9.35
2023-11-30T13:12:19.033Z,10.38
2023-11-30T13:14:45.638Z,9.90
2023-11-30T13:17:12.264Z,11.10
2023-11-30T13:19:38.969Z,11.52
2023-11-30T13:22:05.629Z,10.02
2023-11-30T13:24:32.489Z,9.77
2023-11-30T13:26:59.139Z,10.13
2023-11-30T13:29:25.742Z,10.77
2023-11-30T13:31:52.347Z,16.13
2023-11-30T13:34:19.153Z,16.83
2023-11-30T13:36:45.911Z,14.43
2023-11-30T13:39:12.679Z,11.15
2023-11-30T13:41:39.252Z,11.15
2023-11-30T13:44:06.462Z,11.85
2023-11-30T13:46:33.257Z,11.45
2023-11-30T13:49:00.465Z,10.77
2023-11-30T13:51:27.188Z,9.98
2023-11-30T13:53:54.030Z,10.23
2023-11-30T13:56:22.847Z,10.35
2023-11-30T13:58:50.769Z,10.73
2023-11-30T14:01:17.891Z,10.02
2023-11-30T14:03:44.798Z,10.32
2023-11-30T14:06:13.375Z,11.32
2023-11-30T14:08:41.318Z,10.70
2023-11-30T14:11:13.209Z,11.23
2023-11-30T14:13:40.260Z,10.60
2023-11-30T14:16:07.817Z,11.57
2023-11-30T14:18:34.741Z,10.82
2023-11-30T14:21:01.500Z,11.43
2023-11-30T14:23:28.489Z,12.18
2023-11-30T14:25:55.220Z,10.93
2023-11-30T14:28:22.756Z,16.52
2023-11-30T14:30:49.561Z,14.88
2023-11-30T14:33:16.414Z,13.07
2023-11-30T14:35:42.987Z,12.70
2023-11-30T14:38:09.693Z,11.73
2023-11-30T14:40:37.181Z,11.25
2023-11-30T14:43:03.792Z,11.35
2023-11-30T14:45:30.720Z,11.27
2023-11-30T14:47:59.655Z,10.80
2023-11-30T14:50:27.431Z,11.20
2023-11-30T14:52:55.233Z,14.85
2023-11-30T14:55:22.188Z,13.93
2023-11-30T14:57:51.715Z,14.10
2023-11-30T15:00:22.337Z,12.43
2023-11-30T15:02:49.806Z,11.20
2023-11-30T15:05:16.803Z,11.57
2023-11-30T15:07:43.843Z,12.27
2023-11-30T15:10:12.658Z,12.10
2023-11-30T15:12:40.252Z,12.10
2023-11-30T15:15:14.370Z,12.27
2023-11-30T15:17:43.495Z,12.13
2023-11-30T15:20:11.954Z,11.60
2023-11-30T15:22:39.288Z,11.60
2023-11-30T15:25:08.735Z,11.98
2023-11-30T15:27:37.553Z,12.07
2023-11-30T15:30:05.544Z,11.88
2023-11-30T15:32:32.187Z,12.32
2023-11-30T15:34:58.931Z,12.93
2023-11-30T15:37:25.555Z,15.65
2023-11-30T15:39:54.350Z,14.40
2023-11-30T15:42:21.481Z,13.48
2023-11-30T15:44:48.495Z,15.55
2023-11-30T15:47:15.129Z,13.80
2023-11-30T15:49:41.784Z,14.02
2023-11-30T15:52:08.439Z,12.30
2023-11-30T15:54:39.255Z,13.90
2023-11-30T15:57:05.921Z,14.27
2023-11-30T15:59:32.527Z,12.95
2023-11-30T16:01:59.159Z,13.52
2023-11-30T16:04:26.642Z,12.95
2023-11-30T16:06:53.335Z,13.73
2023-11-30T16:09:19.981Z,15.82
2023-11-30T16:11:49.393Z,21.33
2023-11-30T16:14:17.012Z,14.35
2023-11-30T16:16:45.680Z,13.98
2023-11-30T16:19:12.543Z,13.48
2023-11-30T16:21:39.609Z,12.63
2023-11-30T16:24:06.559Z,12.93
2023-11-30T16:26:34.902Z,13.05
2023-11-30T16:29:01.635Z,13.05
2023-11-30T16:31:28.344Z,13.50
2023-11-30T16:33:55.620Z,13.23
2023-11-30T16:36:24.409Z,12.88
2023-11-30T16:38:52.548Z,13.20
2023-11-30T16:41:19.143Z,14.15
2023-11-30T16:43:46.372Z,15.00
2023-11-30T16:46:14.011Z,13.80
2023-11-30T16:48:45.259Z,13.07
2023-11-30T16:51:12.853Z,13.00
2023-11-30T16:53:39.808Z,14.23
2023-11-30T16:56:06.825Z,14.57
2023-11-30T16:58:33.597Z,13.85
2023-11-30T17:01:00.280Z,13.98
2023-11-30T17:03:27.143Z,15.07
2023-11-30T17:05:54.144Z,14.40
2023-11-30T17:08:20.850Z,14.48
2023-11-30T17:10:47.922Z,15.50
2023-11-30T17:13:14.633Z,15.10
2023-11-30T17:15:41.333Z,14.38
2023-11-30T17:18:08.021Z,14.52
2023-11-30T17:20:34.767Z,13.90
2023-11-30T17:23:01.561Z,16.10
2023-11-30T17:25:28.305Z,15.32
2023-11-30T17:27:55.031Z,14.35
2023-11-30T17:30:21.762Z,14.32
2023-11-30T17:32:48.568Z,15.38
2023-11-30T17:35:15.562Z,17.80
2023-11-30T17:37:42.323Z,17.42
2023-11-30T17:40:11.892Z,17.92
2023-11-30T17:42:39.037Z,20.60
2023-11-30T17:45:06.986Z,17.63
2023-11-30T17:47:34.594Z,15.73
2023-11-30T17:50:04.538Z,15.23
2023-11-30T17:52:31.929Z,16.48
2023-11-30T17:54:58.785Z,16.15
2023-11-30T17:57:25.539Z,16.27
2023-11-30T17:59:52.181Z,15.30
2023-11-30T18:02:18.861Z,13.75
2023-11-30T18:04:45.639Z,15.85
2023-11-30T18:07:12.299Z,16.10
2023-11-30T18:09:39.016Z,15.68
2023-11-30T18:12:06.999Z,15.25
2023-11-30T18:14:33.878Z,17.35
2023-11-30T18:17:01.495Z,16.33
2023-11-30T18:19:28.628Z,16.63
2023-11-30T18:21:55.275Z,16.17
2023-11-30T18:24:30.993Z,14.90
2023-11-30T18:26:58.979Z,13.93
2023-11-30T18:29:25.896Z,13.63
2023-11-30T18:31:52.788Z,14.07
2023-11-30T18:34:20.240Z,14.40
2023-11-30T18:36:47.302Z,14.82
2023-11-30T18:39:15.993Z,14.13
2023-11-30T18:41:43.558Z,13.85
2023-11-30T18:44:12.423Z,13.27
2023-11-30T18:46:39.770Z,14.80
2023-11-30T18:49:06.734Z,15.65
2023-11-30T18:51:35.315Z,15.63
2023-11-30T18:54:02.388Z,17.50
2023-11-30T18:56:30.014Z,18.48
2023-11-30T18:58:57.516Z,18.15
2023-11-30T19:01:25.144Z,17.15
2023-11-30T19:03:52.347Z,16.92
2023-11-30T19:06:21.033Z,17.55
2023-11-30T19:08:48.760Z,16.55
2023-11-30T19:11:17.370Z,16.65
2023-11-30T19:13:44.728Z,18.67
2023-11-30T19:16:24.415Z,18.60
2023-11-30T19:18:51.681Z,17.40
2023-11-30T19:21:19.262Z,16.88
2023-11-30T19:23:46.733Z,17.63
2023-11-30T19:26:13.987Z,17.42
2023-11-30T19:28:40.743Z,16.95
2023-11-30T19:31:07.701Z,16.38
2023-11-30T19:33:34.525Z,16.60
2023-11-30T19:36:01.791Z,16.08
2023-11-30T19:38:28.977Z,16.33
2023-11-30T19:40:57.203Z,15.02
2023-11-30T19:43:25.403Z,16.65
2023-11-30T19:45:53.677Z,16.40
2023-11-30T19:48:20.683Z,18.45
2023-11-30T19:50:47.399Z,18.70
2023-11-30T19:53:14.124Z,21.55
2023-11-30T19:55:40.828Z,18.67
2023-11-30T19:58:07.900Z,17.42
2023-11-30T20:00:34.777Z,17.98
2023-11-30T20:03:01.516Z,17.70
2023-11-30T20:05:28.307Z,17.58
2023-11-30T20:07:54.980Z,18.65
2023-11-30T20:10:21.537Z,18.15
2023-11-30T20:12:50.208Z,17.80
2023-11-30T20:15:17.420Z,16.52
2023-11-30T20:17:44.079Z,17.85
2023-11-30T20:20:11.022Z,17.20
2023-11-30T20:22:37.641Z,17.38
2023-11-30T20:25:05.508Z,17.02
2023-11-30T20:27:32.215Z,18.05
2023-11-30T20:29:59.019Z,18.70
2023-11-30T20:32:26.036Z,18.15
2023-11-30T20:34:55.965Z,19.40
2023-11-30T20:37:22.577Z,17.80
2023-11-30T20:39:49.308Z,16.48
2023-11-30T20:42:15.906Z,16.58
2023-11-30T20:44:42.496Z,16.42
2023-11-30T20:47:09.270Z,17.02
2023-11-30T20:49:38.987Z,17.85
2023-11-30T20:52:05.935Z,18.70
2023-11-30T20:54:35.461Z,20.83
2023-11-30T20:57:03.554Z,21.92
2023-11-30T20:59:30.225Z,20.13
2023-11-30T21:01:56.974Z,20.23
2023-11-30T21:04:23.834Z,21.30
2023-11-30T21:06:50.520Z,21.00
2023-11-30T21:09:17.239Z,21.33
2023-11-30T21:11:43.969Z,21.25
2023-11-30T21:14:12.085Z,18.95
2023-11-30T21:16:38.681Z,19.90
2023-11-30T21:19:05.392Z,19.60
2023-11-30T21:21:32.278Z,20.38
2023-11-30T21:23:58.909Z,23.98
2023-11-30T21:26:25.804Z,19.73
2023-11-30T21:28:52.416Z,17.83
2023-11-30T21:31:19.091Z,18.60
2023-11-30T21:33:45.824Z,18.90
2023-11-30T21:36:15.330Z,18.48
2023-11-30T21:38:42.161Z,19.13
2023-11-30T21:41:09.276Z,18.63
2023-11-30T21:43:35.901Z,18.80
2023-11-30T21:46:02.659Z,18.38
2023-11-30T21:48:29.448Z,18.33
2023-11-30T21:50:56.112Z,18.88
2023-11-30T21:53:22.722Z,18.58
2023-11-30T21:55:49.591Z,19.00
2023-11-30T21:58:16.535Z,18.10
2023-11-30T22:00:44.972Z,16.95
2023-11-30T22:03:17.673Z,18.02
2023-11-30T22:05:46.204Z,17.17
2023-11-30T22:08:12.832Z,17.58
2023-11-30T22:10:39.629Z,17.50
2023-11-30T22:13:06.318Z,17.13
2023-11-30T22:15:32.976Z,20.25
2023-11-30T22:18:00.158Z,21.17
2023-11-30T22:20:26.880Z,19.17
2023-11-30T22:22:56.322Z,19.02
2023-11-30T22:25:24.346Z,18.77
2023-11-30T22:27:51.145Z,17.77
2023-11-30T22:30:17.809Z,17.02
2023-11-30T22:32:44.675Z,17.60
2023-11-30T22:35:11.414Z,17.88
2023-11-30T22:37:38.013Z,17.67
2023-11-30T22:40:05.232Z,18.38
2023-11-30T22:42:33.485Z,17.65
2023-11-30T22:45:02.377Z,16.88
2023-11-30T22:47:29.274Z,17.08
2023-11-30T22:49:56.246Z,17.45
2023-11-30T22:52:26.652Z,18.58
2023-11-30T22:54:53.880Z,17.90
2023-11-30T22:57:21.061Z,16.70
2023-11-30T22:59:47.780Z,18.00
2023-11-30T23:02:15.013Z,17.55
2023-11-30T23:04:42.031Z,17.80
2023-11-30T23:07:08.752Z,16.83
2023-11-30T23:09:35.489Z,23.02
2023-11-30T23:12:02.182Z,24.67
2023-11-30T23:14:29.103Z,24.73
2023-11-30T23:16:55.805Z,22.40
2023-11-30T23:19:22.484Z,20.25
2023-11-30T23:21:49.289Z,20.42
2023-11-30T23:24:25.851Z,18.67
2023-11-30T23:26:55.841Z,17.23
2023-11-30T23:29:23.267Z,17.27
2023-11-30T23:31:49.992Z,18.15
2023-11-30T23:34:16.656Z,18.33
2023-11-30T23:36:43.337Z,19.60
2023-11-30T23:39:10.032Z,17.85
2023-11-30T23:41:36.681Z,18.50
2023-11-30T23:44:03.438Z,18.85
2023-11-30T23:46:31.595Z,19.10
2023-11-30T23:48:58.715Z,17.77
2023-11-30T23:51:25.469Z,19.00
2023-11-30T23:53:52.223Z,16.77
2023-11-30T23:56:18.863Z,17.67
2023-11-30T23:58:45.565Z,21.60
